EHFZ

F16-a Sea

F16-a Sea, The Netherlands
METAR EHFZ 141325Z AUTO 28011KT 9999 FEW017 18/14 Q1013 W///H///
Observed Flight Rules
Aug-14 @ 13:25 UTC (18 minutes ago) Visual Flight Rules
Wind Visibility Clouds
280° at 11 knots 10,000+ meters
  • Few at 1,700' AGL
Temperatures Readings
Current 18°C / 64°F
Dewpoint 14°C / 57°F
Humidity 78%
Altimeter 29.91" Hg
Pressure 1013 hPa
Elevation 50
METAR EHFZ 141325Z AUTO 28011KT 9999 FEW017 18/14 Q1013 W///H///
Observed Flight Rules
Aug-14 @ 13:25 UTC
(18 minutes ago)
VFR
Wind Visibility
280° at 11 knots 10,000+ meters
Clouds
  • Few at 1,700' AGL
Temperature Dewpoint
18°C / 64°F 14°C / 57°F
Humidity Altimeter Pressure
78% 29.91" Hg 1013 hPa